Buford, OH (45110)

7:44 AM EDT on October 01, 2014 (GMT -0400)
Hillsboro | Change Station
CLOSE
Current Station
Personal Weather Station
Location: Hillsboro, OH
Elevation: 1102 ft
Nearby Weather Stations
Active Advisory: Special Statement

Elev 1102 ft 39.21 °N, 83.60 °W | Updated 20 seconds ago

Fog
Fog
49.8 °F
Feels Like 48 °F
N
5.8
Wind Variable Wind from East
Gusts 5.8 mph

Today
High -- | Low -- °F
--% Chance of Precip.
Yesterday
High -- | Low -- °F
Precip. -- in
7:30 AM 7:16 PM
Waxing Crescent, 46% visible
Pressure 29.99 in
Visibility 0.5 miles
Clouds
Windchill 48 °F
Dew Point 50 °F
Humidity 99%
Rainfall 0.04 in
Snow Depth Not available.
UV Not available.
Pollen 2.90 out of 12
Air Quality Not available.
Flu Activity Not available.
METAR KILN 010906Z AUTO 04003KT 1/2SM FG VV006 07/06 A2999 RMK AO2 T00720061

More Conditions Fewer Conditions

Pressure 29.99 in
Visibility 0.5 miles
Clouds
Windchill 48 °F
Dew Point 50 °F
Humidity 99%
Rainfall 0.04 in
Snow Depth Not available.
UV Not available.
Pollen 2.90 out of 12
Air Quality Not available.
Flu Activity Not available.
METAR KILN 010906Z AUTO 04003KT 1/2SM FG VV006 07/06 A2999 RMK AO2 T00720061

More Conditions Fewer Conditions

10-Day Weather Forecast

Almanac

Astronomy

Oct. 01, 2014 Rise Set
Actual Time 7:30 AM EDT 7:16 PM EDT
Civil Twilight 7:03 AM EDT 7:43 PM EDT
Nautical Twilight 6:32 AM EDT 8:14 PM EDT
Astronomical Twilight 6:01 AM EDT 8:45 PM EDT
Moon 2:28 PM EDT No Moon Set
Length of Visible Light 12h 39m
Length of Day
11h 46m
Tomorrow will be 2m 31s shorter.
Waxing Crescent, 46% of the Moon is Illuminated
Today
Waxing Crescent
Oct 1
First Quarter
Oct 8
Full
Oct 15
Last Quarter
Oct 23
New

Today's Extremes

State Highs State Lows

Community

WunderPhotos

Upload Photos

1,757,913 photos uploaded!

Nearby

Snow Depth

Station Depth Elevation
No new snow has been reported.

Earthquake Activity

City Distance Mag. Time & Date
No recent earthquake activity has been reported nearby.
Minimum magnitude displayed is 2.5.

Coastal Water Temperatures

Place Temperature
No Stations Reporting

Nearby Weather Stations